Time;durP1;ratioP1;P1;durP2;ratioP2;P2;SDS_P1;SDS_P2;PMS_P1;PMS_P2;Temp;Humidity;BMP_temperature;BMP_pressure;BME280_temperature;BME280_humidity;BME280_pressure;Samples;Min_cycle;Max_cycle;Signal;HPM_P1;HPM_P2
2021/01/18 00:00:49;;;;;;;222.90;53.05;;;2.50;99.90;;;;;;5009361;28;20025;-81
2021/01/18 00:03:15;;;;;;;345.15;59.95;;;2.40;99.90;;;;;;5009613;28;20052;-81
2021/01/18 00:05:40;;;;;;;312.60;58.13;;;2.40;99.90;;;;;;5006605;28;20030;-81
2021/01/18 00:08:06;;;;;;;220.07;55.35;;;2.40;99.90;;;;;;4993333;28;20431;-81
2021/01/18 00:10:32;;;;;;;256.58;55.47;;;2.40;99.90;;;;;;5011031;28;20065;-81
2021/01/18 00:12:58;;;;;;;257.85;57.40;;;2.40;99.90;;;;;;5009375;28;20160;-81
2021/01/18 00:15:25;;;;;;;216.75;53.97;;;2.50;99.90;;;;;;5011102;28;20022;-81
2021/01/18 00:17:51;;;;;;;278.88;58.40;;;2.50;99.90;;;;;;5009509;28;20052;-81
2021/01/18 00:20:19;;;;;;;243.77;54.42;;;2.50;99.90;;;;;;5003708;28;20372;-80
2021/01/18 00:22:46;;;;;;;252.35;53.83;;;2.50;99.90;;;;;;5009557;28;20038;-80
2021/01/18 00:25:17;;;;;;;238.10;53.13;;;2.60;99.90;;;;;;5009467;28;20026;-81
2021/01/18 00:27:44;;;;;;;214.38;50.60;;;2.60;99.90;;;;;;5009301;28;20438;-81
2021/01/18 00:30:10;;;;;;;237.13;53.45;;;2.70;99.90;;;;;;5012838;28;20057;-81
2021/01/18 00:32:38;;;;;;;231.68;51.88;;;2.70;99.90;;;;;;5010579;28;20092;-82
2021/01/18 00:35:04;;;;;;;212.57;50.42;;;2.70;99.90;;;;;;5008711;28;20498;-81
2021/01/18 00:37:30;;;;;;;221.90;49.35;;;2.80;99.90;;;;;;5009941;28;20446;-80
2021/01/18 00:39:55;;;;;;;222.27;48.85;;;2.80;99.90;;;;;;5011586;28;20049;-80
2021/01/18 00:42:21;;;;;;;200.13;44.58;;;2.70;99.90;;;;;;5008824;28;20046;-81
2021/01/18 00:44:47;;;;;;;223.13;48.13;;;2.70;99.90;;;;;;5010382;28;20113;-81
2021/01/18 00:47:14;;;;;;;213.27;44.88;;;2.80;99.90;;;;;;5009050;28;20038;-81
2021/01/18 00:49:39;;;;;;;218.68;44.85;;;2.80;99.90;;;;;;5008945;28;20030;-80
2021/01/18 00:52:05;;;;;;;197.93;44.35;;;2.80;99.90;;;;;;5010292;28;20529;-83
2021/01/18 00:54:31;;;;;;;200.77;46.35;;;2.80;99.90;;;;;;5009073;28;20044;-83
2021/01/18 00:56:57;;;;;;;184.95;43.05;;;2.80;99.90;;;;;;5008945;28;20029;-81
2021/01/18 00:59:22;;;;;;;184.15;39.90;;;2.80;99.90;;;;;;5010140;28;20112;-81
2021/01/18 01:01:48;;;;;;;174.05;38.97;;;2.90;99.90;;;;;;5005540;28;20046;-81
2021/01/18 01:04:14;;;;;;;123.13;34.83;;;3.00;99.90;;;;;;4993239;28;20436;-81
2021/01/18 01:06:39;;;;;;;124.30;33.72;;;3.00;99.90;;;;;;4992427;28;20026;-81
2021/01/18 01:09:05;;;;;;;126.95;31.70;;;3.10;99.90;;;;;;4992807;28;20040;-81
2021/01/18 01:11:31;;;;;;;137.80;33.38;;;3.10;99.90;;;;;;5010763;28;20041;-81
2021/01/18 01:13:57;;;;;;;126.00;33.45;;;3.10;99.90;;;;;;4992282;28;20121;-81
2021/01/18 01:16:23;;;;;;;121.30;32.53;;;3.10;99.90;;;;;;4992220;28;20168;-81
2021/01/18 01:18:49;;;;;;;115.30;31.40;;;3.00;99.90;;;;;;4992457;28;20085;-81
2021/01/18 01:21:14;;;;;;;102.00;28.15;;;3.00;99.90;;;;;;4992045;28;20033;-81
2021/01/18 01:23:40;;;;;;;116.55;32.60;;;3.00;99.90;;;;;;4991731;28;20099;-81
2021/01/18 01:26:05;;;;;;;129.85;29.67;;;3.00;99.90;;;;;;4992036;28;20029;-81
2021/01/18 01:28:31;;;;;;;117.63;29.25;;;3.10;99.90;;;;;;5009257;28;20445;-81
2021/01/18 01:30:57;;;;;;;108.07;28.77;;;3.10;99.90;;;;;;4992135;28;20033;-81
2021/01/18 01:33:22;;;;;;;105.18;26.63;;;3.10;99.90;;;;;;4991833;28;20018;-81
2021/01/18 01:35:48;;;;;;;92.63;25.75;;;3.10;99.90;;;;;;4993000;28;20084;-81
2021/01/18 01:38:15;;;;;;;111.95;32.45;;;3.10;99.90;;;;;;4998894;28;20052;-81
2021/01/18 01:40:40;;;;;;;113.10;30.35;;;3.10;99.90;;;;;;5016785;28;20520;-80
2021/01/18 01:43:06;;;;;;;114.72;30.65;;;3.10;99.90;;;;;;4991915;28;20066;-81
2021/01/18 01:45:32;;;;;;;96.65;28.98;;;3.20;99.90;;;;;;5009279;28;20026;-81
2021/01/18 01:47:59;;;;;;;94.47;27.77;;;3.10;99.90;;;;;;4992030;28;20140;-81
2021/01/18 01:50:27;;;;;;;97.18;29.40;;;3.00;99.90;;;;;;4991509;28;20083;-81
2021/01/18 01:53:12;;;;;;;112.28;29.48;;;3.00;99.90;;;;;;4992904;28;20494;-81
2021/01/18 01:55:38;;;;;;;98.75;28.45;;;3.10;99.90;;;;;;4995901;28;20030;-81
2021/01/18 01:58:06;;;;;;;92.80;26.95;;;3.10;99.90;;;;;;4995802;28;20049;-81
2021/01/18 02:00:36;;;;;;;89.07;27.42;;;3.10;99.90;;;;;;4995929;28;20104;-81
2021/01/18 02:03:27;;;;;;;83.72;26.15;;;3.10;99.90;;;;;;5007380;28;20049;-81
2021/01/18 02:05:53;;;;;;;122.07;26.98;;;3.10;99.90;;;;;;5013119;28;20128;-81
2021/01/18 02:08:19;;;;;;;91.18;25.42;;;3.00;99.90;;;;;;5018679;28;20625;-80
2021/01/18 02:10:45;;;;;;;88.50;26.15;;;3.00;99.90;;;;;;5015533;28;20069;-81
2021/01/18 02:13:29;;;;;;;93.65;25.48;;;3.00;99.90;;;;;;5011621;28;20137;-81
2021/01/18 02:16:11;;;;;;;69.43;23.63;;;3.00;99.90;;;;;;5009850;28;20088;-81
2021/01/18 02:18:57;;;;;;;98.10;24.63;;;3.00;99.90;;;;;;5005143;28;20026;-80
2021/01/18 02:21:43;;;;;;;76.03;21.92;;;3.10;99.90;;;;;;4937360;29;20093;-81
2021/01/18 02:24:20;;;;;;;91.88;25.40;;;3.10;99.90;;;;;;4940632;28;20522;-80
2021/01/18 02:27:02;;;;;;;83.03;24.10;;;3.10;99.90;;;;;;4942451;29;20039;-81
2021/01/18 02:29:49;;;;;;;73.80;23.17;;;3.10;99.90;;;;;;4950850;28;20114;-81
2021/01/18 02:32:41;;;;;;;95.50;22.50;;;3.10;99.90;;;;;;4951987;29;20035;-80
2021/01/18 02:35:28;;;;;;;86.15;22.60;;;3.10;99.90;;;;;;4956016;28;20063;-81
2021/01/18 02:38:34;;;;;;;75.82;23.85;;;3.20;99.90;;;;;;4947132;28;20061;-81
2021/01/18 02:41:20;;;;;;;85.25;23.42;;;3.10;99.90;;;;;;4914019;29;20040;-81
2021/01/18 02:44:00;;;;;;;102.63;24.73;;;3.20;99.90;;;;;;4931819;29;20086;-81
2021/01/18 02:46:28;;;;;;;85.07;21.33;;;3.20;99.90;;;;;;4917078;29;20501;-80
2021/01/18 02:48:54;;;;;;;83.65;20.85;;;3.10;99.90;;;;;;4916372;29;20043;-81
2021/01/18 02:51:22;;;;;;;86.60;22.67;;;3.10;99.90;;;;;;4916905;29;20049;-81
2021/01/18 02:53:58;;;;;;;86.10;21.73;;;3.20;99.90;;;;;;4916194;29;20400;-80
2021/01/18 02:56:31;;;;;;;83.38;22.00;;;3.20;99.90;;;;;;4909016;29;20480;-80
2021/01/18 02:58:59;;;;;;;76.25;21.13;;;3.20;99.90;;;;;;4953265;28;20054;-80
2021/01/18 03:01:27;;;;;;;97.97;22.42;;;3.20;99.90;;;;;;4972075;28;20035;-81
2021/01/18 03:04:27;;;;;;;97.28;22.85;;;3.30;99.90;;;;;;4970923;28;20053;-80
2021/01/18 03:07:01;;;;;;;73.85;20.85;;;3.30;99.90;;;;;;4982927;28;20126;-81
2021/01/18 03:09:35;;;;;;;80.30;21.42;;;3.30;99.90;;;;;;4984534;28;20050;-81
2021/01/18 03:12:11;;;;;;;94.15;22.25;;;3.30;99.90;;;;;;4972907;28;20034;-81
2021/01/18 03:14:50;;;;;;;78.15;19.27;;;3.30;99.90;;;;;;4964926;28;20034;-81
2021/01/18 03:17:20;;;;;;;65.78;20.25;;;3.40;99.90;;;;;;4970013;28;20089;-81
2021/01/18 03:19:47;;;;;;;63.67;20.88;;;3.40;99.90;;;;;;5010633;28;20112;-81
2021/01/18 03:22:29;;;;;;;77.45;19.73;;;3.50;99.90;;;;;;5010336;28;20037;-81
2021/01/18 03:25:05;;;;;;;79.53;19.05;;;3.40;99.90;;;;;;5011460;28;20045;-80
2021/01/18 03:27:52;;;;;;;68.93;19.10;;;3.50;99.90;;;;;;5009941;28;20026;-80
2021/01/18 03:30:22;;;;;;;80.63;19.67;;;3.50;99.90;;;;;;5010500;28;20032;-80
2021/01/18 03:32:55;;;;;;;85.30;18.98;;;3.50;99.90;;;;;;5010557;28;20034;-80
2021/01/18 03:35:22;;;;;;;85.65;20.77;;;3.60;99.90;;;;;;5010656;28;20446;-81
2021/01/18 03:37:56;;;;;;;78.55;20.88;;;3.50;99.90;;;;;;5013167;28;20033;-80
2021/01/18 03:40:23;;;;;;;78.28;21.55;;;3.60;99.90;;;;;;5010128;28;20048;-81
2021/01/18 03:43:00;;;;;;;96.50;23.38;;;3.60;99.90;;;;;;5011110;28;20046;-80
2021/01/18 03:45:34;;;;;;;99.18;21.50;;;3.60;99.90;;;;;;5009544;28;20022;-81
2021/01/18 03:47:59;;;;;;;107.00;22.20;;;3.60;99.90;;;;;;5009835;28;20368;-80
2021/01/18 03:50:25;;;;;;;94.50;20.50;;;3.60;99.90;;;;;;5011423;28;20048;-81
2021/01/18 03:52:52;;;;;;;84.53;21.58;;;3.60;99.90;;;;;;5010999;28;20030;-80
2021/01/18 03:55:19;;;;;;;88.22;21.83;;;3.70;99.90;;;;;;5009688;28;20390;-80
2021/01/18 03:57:46;;;;;;;79.47;21.08;;;3.70;99.90;;;;;;5009774;28;20118;-80
2021/01/18 04:00:12;;;;;;;78.57;21.35;;;3.80;99.90;;;;;;5009849;28;20018;-81
2021/01/18 04:02:37;;;;;;;81.25;19.55;;;3.80;99.90;;;;;;5008749;28;20376;-81
2021/01/18 04:05:04;;;;;;;76.10;20.15;;;3.70;99.90;;;;;;5010888;28;20033;-81
2021/01/18 04:07:30;;;;;;;72.18;19.33;;;3.80;99.90;;;;;;5012753;28;20025;-81
2021/01/18 04:09:55;;;;;;;77.28;21.40;;;3.80;99.90;;;;;;5011605;28;20045;-81
2021/01/18 04:12:21;;;;;;;89.45;22.48;;;3.80;99.90;;;;;;5009712;28;20022;-81
2021/01/18 04:14:49;;;;;;;93.07;19.92;;;3.80;99.90;;;;;;5010106;28;20222;-80
2021/01/18 04:17:16;;;;;;;97.45;24.20;;;3.80;99.90;;;;;;5010258;28;20052;-80
2021/01/18 04:19:41;;;;;;;77.85;19.67;;;3.90;99.90;;;;;;5009356;28;20034;-81
2021/01/18 04:22:07;;;;;;;71.40;17.85;;;3.80;99.90;;;;;;5009235;28;20033;-81
2021/01/18 04:24:36;;;;;;;103.80;19.55;;;3.90;99.90;;;;;;5009152;28;20038;-80
2021/01/18 04:27:09;;;;;;;93.97;18.10;;;3.90;99.90;;;;;;5008766;28;20036;-80
2021/01/18 04:29:35;;;;;;;63.63;16.98;;;3.90;99.90;;;;;;5008956;28;20122;-81
2021/01/18 04:32:02;;;;;;;64.32;18.30;;;3.90;99.90;;;;;;5009064;28;20025;-81
2021/01/18 04:34:27;;;;;;;97.70;17.88;;;3.80;99.90;;;;;;5009006;28;20457;-81
2021/01/18 04:36:53;;;;;;;97.50;17.80;;;3.80;99.90;;;;;;5010217;28;20100;-80
2021/01/18 04:39:19;;;;;;;88.05;18.98;;;3.90;99.90;;;;;;5018759;28;20112;-81
2021/01/18 04:41:46;;;;;;;80.80;18.80;;;3.90;99.90;;;;;;5010082;28;20127;-81
2021/01/18 04:44:14;;;;;;;67.90;17.25;;;3.90;99.90;;;;;;5013606;28;20045;-81
2021/01/18 04:46:42;;;;;;;66.30;15.55;;;3.90;99.90;;;;;;5008436;28;20379;-80
2021/01/18 04:49:09;;;;;;;84.57;18.75;;;3.90;99.90;;;;;;5007893;28;20084;-80
2021/01/18 04:51:40;;;;;;;58.35;16.50;;;3.90;99.90;;;;;;5008404;28;20453;-81
2021/01/18 04:54:12;;;;;;;72.95;15.50;;;4.00;99.90;;;;;;5008150;28;20498;-81
2021/01/18 04:57:09;;;;;;;61.33;18.45;;;3.90;99.90;;;;;;5008863;28;20030;-81
2021/01/18 04:59:46;;;;;;;56.90;14.98;;;4.00;99.90;;;;;;5005873;28;20065;-81
2021/01/18 05:02:14;;;;;;;73.53;16.67;;;4.00;99.90;;;;;;5001336;28;20487;-81
2021/01/18 05:04:45;;;;;;;77.38;19.55;;;4.00;99.90;;;;;;5008796;28;20046;-80
2021/01/18 05:07:23;;;;;;;57.00;15.88;;;4.00;99.90;;;;;;5010175;28;20068;-80
2021/01/18 05:09:55;;;;;;;88.25;17.02;;;4.00;99.90;;;;;;5015308;28;20357;-80
2021/01/18 05:12:21;;;;;;;62.83;15.85;;;4.00;99.90;;;;;;5008528;28;20462;-81
2021/01/18 05:14:50;;;;;;;63.55;16.00;;;4.00;99.90;;;;;;5009311;28;20050;-83
2021/01/18 05:17:43;;;;;;;70.40;15.75;;;3.90;99.90;;;;;;5010277;28;20022;-83
2021/01/18 05:20:11;;;;;;;68.93;16.55;;;3.90;99.90;;;;;;5008901;28;20421;-80
2021/01/18 05:22:39;;;;;;;67.45;15.23;;;3.90;99.90;;;;;;5007989;28;20074;-81
2021/01/18 05:25:08;;;;;;;71.47;16.20;;;3.90;99.90;;;;;;5007556;28;20022;-81
2021/01/18 05:27:34;;;;;;;80.43;17.52;;;4.00;99.90;;;;;;5004544;28;20038;-81
2021/01/18 05:30:01;;;;;;;81.68;17.40;;;3.90;99.90;;;;;;5002659;28;20026;-80
2021/01/18 05:32:27;;;;;;;73.70;16.58;;;4.00;99.90;;;;;;5006405;28;20037;-80
2021/01/18 05:35:11;;;;;;;99.38;22.08;;;4.00;99.90;;;;;;5008581;28;20116;-80
2021/01/18 05:37:55;;;;;;;85.82;19.98;;;4.00;99.90;;;;;;5006077;28;20056;-81
2021/01/18 05:40:22;;;;;;;81.43;22.67;;;4.00;99.90;;;;;;5001178;28;20044;-80
2021/01/18 05:42:51;;;;;;;90.70;23.33;;;4.00;99.90;;;;;;5008865;28;20368;-80
2021/01/18 05:45:31;;;;;;;104.47;26.17;;;4.00;99.90;;;;;;5012783;28;20029;-80
2021/01/18 05:47:58;;;;;;;95.68;24.15;;;4.00;99.90;;;;;;5003427;28;20033;-80
2021/01/18 05:50:25;;;;;;;89.68;26.15;;;4.00;99.90;;;;;;5009369;28;20478;-81
2021/01/18 05:52:51;;;;;;;101.78;27.02;;;4.00;99.90;;;;;;5007451;28;20038;-80
2021/01/18 05:55:20;;;;;;;90.13;26.02;;;4.00;99.90;;;;;;5010683;28;20148;-80
2021/01/18 05:57:47;;;;;;;93.38;25.42;;;4.00;99.90;;;;;;5011868;28;20029;-81
2021/01/18 06:00:22;;;;;;;96.18;25.50;;;4.00;99.90;;;;;;5010900;28;20030;-80
2021/01/18 06:02:49;;;;;;;90.18;23.58;;;4.00;99.90;;;;;;5007871;28;20061;-80
2021/01/18 06:05:15;;;;;;;89.75;22.67;;;4.00;99.90;;;;;;4991012;28;20022;-81
2021/01/18 06:07:40;;;;;;;88.00;24.60;;;4.00;99.90;;;;;;5009701;28;20037;-80
2021/01/18 06:10:14;;;;;;;90.63;23.10;;;4.10;99.90;;;;;;5012185;28;20022;-81
2021/01/18 06:12:39;;;;;;;85.05;25.27;;;4.10;99.90;;;;;;4979049;28;20461;-80
2021/01/18 06:15:08;;;;;;;91.97;22.67;;;4.10;99.90;;;;;;4998739;28;20141;-80
2021/01/18 06:17:37;;;;;;;92.03;22.52;;;4.10;99.90;;;;;;5010648;28;20030;-81
2021/01/18 06:20:05;;;;;;;79.93;22.17;;;4.10;99.90;;;;;;5011991;28;20026;-80
2021/01/18 06:22:31;;;;;;;92.85;23.73;;;4.10;99.90;;;;;;4989436;28;20048;-80
2021/01/18 06:24:57;;;;;;;102.20;27.15;;;4.00;99.90;;;;;;4993801;28;20021;-81
2021/01/18 06:27:33;;;;;;;91.25;24.10;;;4.10;99.90;;;;;;4997200;28;20029;-81
2021/01/18 06:30:00;;;;;;;95.00;23.55;;;4.00;99.90;;;;;;4992292;28;20113;-81
2021/01/18 06:32:30;;;;;;;90.35;26.75;;;4.10;99.90;;;;;;4992117;28;20027;-81
2021/01/18 06:35:00;;;;;;;93.78;24.35;;;4.10;99.90;;;;;;4990232;28;20021;-81
2021/01/18 06:37:30;;;;;;;97.55;25.35;;;4.10;99.90;;;;;;4993972;28;20022;-80
2021/01/18 06:39:59;;;;;;;84.07;21.90;;;4.10;99.90;;;;;;5011654;28;20048;-80
2021/01/18 06:42:27;;;;;;;72.57;21.77;;;4.20;99.90;;;;;;4993225;28;20049;-81
2021/01/18 06:44:55;;;;;;;83.15;22.50;;;4.10;99.90;;;;;;5002142;28;20035;-80
2021/01/18 06:47:30;;;;;;;90.90;23.15;;;4.10;99.90;;;;;;4995328;28;20125;-81
2021/01/18 06:50:01;;;;;;;80.47;21.40;;;4.10;99.90;;;;;;4989177;28;20051;-81
2021/01/18 06:52:30;;;;;;;85.20;23.17;;;4.20;99.90;;;;;;4995823;28;20471;-80
2021/01/18 06:55:01;;;;;;;75.53;22.60;;;4.20;99.90;;;;;;4994458;28;20036;-81
2021/01/18 06:57:46;;;;;;;;;;;4.20;99.90;;;;;;4993573;28;20021;-80
2021/01/18 07:00:14;;;;;;;99.28;25.38;;;4.20;99.90;;;;;;4994089;28;20430;-80
2021/01/18 07:03:00;;;;;;;80.70;26.05;;;4.20;99.90;;;;;;5001688;28;20054;-80
2021/01/18 07:05:46;;;;;;;68.30;24.35;;;4.20;99.90;;;;;;5010202;28;20025;-80
2021/01/18 07:08:19;;;;;;;79.53;21.63;;;4.20;99.90;;;;;;5013759;28;20528;-80
2021/01/18 07:10:50;;;;;;;85.05;22.60;;;4.20;99.90;;;;;;5008909;28;20034;-80
2021/01/18 07:13:20;;;;;;;65.85;20.27;;;4.30;99.90;;;;;;5007780;28;20017;-80
2021/01/18 07:15:50;;;;;;;70.10;19.60;;;4.30;99.90;;;;;;5009470;28;20034;-80
2021/01/18 07:18:16;;;;;;;63.42;21.45;;;4.30;99.90;;;;;;5009433;28;20528;-81
2021/01/18 07:20:43;;;;;;;59.53;20.95;;;4.30;99.90;;;;;;5007662;28;20037;-81
2021/01/18 07:23:08;;;;;;;62.22;18.75;;;4.30;99.90;;;;;;5006796;28;20042;-81
2021/01/18 07:25:36;;;;;;;50.30;19.30;;;4.30;99.90;;;;;;5008858;28;20026;-81
2021/01/18 07:28:03;;;;;;;77.13;20.63;;;4.30;99.90;;;;;;5008669;28;20030;-81
2021/01/18 07:30:33;;;;;;;68.72;19.73;;;4.30;99.90;;;;;;5007916;28;20034;-81
2021/01/18 07:33:09;;;;;;;75.57;21.23;;;4.40;99.90;;;;;;4990161;28;20471;-81
2021/01/18 07:35:37;;;;;;;70.43;22.63;;;4.30;99.90;;;;;;5009220;28;20030;-81
2021/01/18 07:38:18;;;;;;;57.58;20.40;;;4.30;99.90;;;;;;5009562;28;20026;-81
2021/01/18 07:41:30;;;;;;;79.57;19.63;;;4.40;99.90;;;;;;5009524;28;20507;-81
2021/01/18 07:43:56;;;;;;;60.92;19.45;;;4.40;99.90;;;;;;4944774;28;20047;-81
2021/01/18 07:46:30;;;;;;;64.18;19.75;;;4.40;99.90;;;;;;4932709;29;20033;-81
2021/01/18 07:48:57;;;;;;;56.00;19.70;;;4.40;99.90;;;;;;4946679;28;20439;-81
2021/01/18 07:51:27;;;;;;;69.25;18.40;;;4.40;99.90;;;;;;4929829;29;20038;-80
2021/01/18 07:53:54;;;;;;;60.95;20.45;;;4.40;99.90;;;;;;4929753;28;20126;-81
2021/01/18 07:56:34;;;;;;;63.03;17.92;;;4.40;99.90;;;;;;4928665;29;20023;-81
2021/01/18 07:59:05;;;;;;;74.57;19.73;;;4.40;99.90;;;;;;4945452;28;20053;-81
2021/01/18 08:01:32;;;;;;;61.40;20.50;;;4.40;99.90;;;;;;4945128;28;20047;-81
2021/01/18 08:04:18;;;;;;;66.65;20.63;;;4.40;99.90;;;;;;4945159;28;20139;-81
2021/01/18 08:07:06;;;;;;;49.88;17.92;;;4.50;99.90;;;;;;4945424;28;20047;-81
2021/01/18 08:09:33;;;;;;;69.65;18.10;;;4.50;99.90;;;;;;4943391;28;20035;-81
2021/01/18 08:12:33;;;;;;;62.92;18.42;;;4.50;99.90;;;;;;4945457;28;20090;-81
2021/01/18 08:15:05;;;;;;;57.80;20.48;;;4.50;99.90;;;;;;4929847;28;20114;-81
2021/01/18 08:17:31;;;;;;;62.50;19.95;;;4.50;99.90;;;;;;4970629;28;20337;-82
2021/01/18 08:20:09;;;;;;;66.38;20.33;;;4.50;99.90;;;;;;5008165;28;20057;-81
2021/01/18 08:22:35;;;;;;;61.65;20.02;;;4.50;99.90;;;;;;5003474;28;20038;-81
2021/01/18 08:25:05;;;;;;;71.05;20.35;;;4.50;99.90;;;;;;5005240;28;20131;-81
2021/01/18 08:27:55;;;;;;;71.35;23.10;;;4.50;99.90;;;;;;5002675;28;20061;-81
2021/01/18 08:30:34;;;;;;;78.90;25.75;;;4.50;99.90;;;;;;4997920;28;20058;-81
2021/01/18 08:33:06;;;;;;;72.28;23.08;;;4.50;99.90;;;;;;5011317;28;20036;-82
2021/01/18 08:35:43;;;;;;;85.13;25.02;;;4.50;99.90;;;;;;5003176;28;20025;-81
2021/01/18 08:38:10;;;;;;;70.53;24.98;;;4.60;99.90;;;;;;5003135;28;20149;-81
2021/01/18 08:40:44;;;;;;;65.93;25.30;;;4.60;99.90;;;;;;5003506;28;20128;-81
2021/01/18 08:43:12;;;;;;;70.95;23.95;;;4.60;99.90;;;;;;5018940;28;20069;-82
2021/01/18 08:45:39;;;;;;;90.90;24.25;;;4.60;99.90;;;;;;5002747;28;20037;-82
2021/01/18 08:48:08;;;;;;;68.72;23.98;;;4.60;99.90;;;;;;5002126;28;20030;-81
2021/01/18 08:50:54;;;;;;;74.88;24.75;;;4.60;99.90;;;;;;5003175;28;20030;-81
2021/01/18 08:53:33;;;;;;;75.43;24.30;;;4.60;99.90;;;;;;5000728;28;20037;-82
2021/01/18 08:56:20;;;;;;;71.55;23.10;;;4.70;99.90;;;;;;5003246;28;20729;-82
2021/01/18 08:58:46;;;;;;;55.53;23.15;;;4.70;99.90;;;;;;5003372;28;20065;-82
2021/01/18 09:01:32;;;;;;;64.63;22.20;;;4.70;99.90;;;;;;5002573;28;20056;-82
2021/01/18 09:04:02;;;;;;;74.88;23.67;;;4.70;99.90;;;;;;4999633;28;20041;-82
2021/01/18 09:06:28;;;;;;;78.70;23.75;;;4.70;99.90;;;;;;4913575;29;20032;-82
2021/01/18 09:09:09;;;;;;;84.95;24.42;;;4.70;99.90;;;;;;4924789;29;20036;-81
2021/01/18 09:11:35;;;;;;;59.97;21.90;;;4.70;99.90;;;;;;4911098;29;20130;-81
2021/01/18 09:14:01;;;;;;;58.85;21.40;;;4.80;99.90;;;;;;4911368;29;20283;-81
2021/01/18 09:16:27;;;;;;;83.00;22.67;;;4.80;99.90;;;;;;4909581;29;20063;-81
2021/01/18 09:19:03;;;;;;;50.80;21.38;;;4.80;99.90;;;;;;4926325;29;20114;-82
2021/01/18 09:21:30;;;;;;;54.70;23.42;;;4.90;99.90;;;;;;4926547;29;20035;-82
2021/01/18 09:23:56;;;;;;;74.03;22.75;;;4.90;99.90;;;;;;4903466;29;20048;-82
2021/01/18 09:26:22;;;;;;;71.95;22.48;;;4.90;99.90;;;;;;4889001;29;20044;-81
2021/01/18 09:28:53;;;;;;;81.35;25.02;;;5.00;99.90;;;;;;4890146;29;20122;-81
2021/01/18 09:31:19;;;;;;;81.80;24.95;;;5.00;99.90;;;;;;4890220;29;20388;-81
2021/01/18 09:33:45;;;;;;;77.30;21.98;;;5.00;99.90;;;;;;4891734;29;20072;-82
2021/01/18 09:36:15;;;;;;;74.82;24.88;;;5.00;99.90;;;;;;4887831;29;20041;-82
2021/01/18 09:38:43;;;;;;;83.45;25.50;;;5.00;99.90;;;;;;4959861;28;20043;-81
2021/01/18 09:41:09;;;;;;;59.53;23.85;;;5.00;99.90;;;;;;4958831;28;20530;-80
2021/01/18 09:43:35;;;;;;;73.43;25.42;;;5.00;99.90;;;;;;4938334;28;20043;-83
2021/01/18 09:46:02;;;;;;;62.80;24.27;;;5.00;99.90;;;;;;4940951;28;20476;-81
2021/01/18 09:48:28;;;;;;;66.35;24.20;;;5.00;99.90;;;;;;4956547;28;20081;-81
2021/01/18 09:51:01;;;;;;;73.28;26.30;;;5.10;99.90;;;;;;4956292;28;20075;-81
2021/01/18 09:53:27;;;;;;;71.32;27.30;;;5.10;99.90;;;;;;4958258;28;20046;-82
2021/01/18 09:55:56;;;;;;;86.95;27.55;;;5.10;99.90;;;;;;4956087;28;20046;-81
2021/01/18 09:58:38;;;;;;;81.35;27.42;;;5.10;99.90;;;;;;4943340;28;20101;-81
2021/01/18 10:01:17;;;;;;;90.18;28.52;;;5.20;99.90;;;;;;4949503;28;20049;-81
2021/01/18 10:03:52;;;;;;;90.80;29.75;;;5.20;99.90;;;;;;4944449;28;20254;-81
2021/01/18 10:06:25;;;;;;;74.00;27.63;;;5.20;99.90;;;;;;4978580;28;20542;-81
2021/01/18 10:08:54;;;;;;;92.03;28.83;;;5.20;99.90;;;;;;4980420;28;20034;-81
2021/01/18 10:11:43;;;;;;;90.25;29.50;;;5.20;99.90;;;;;;4979345;28;20034;-81
2021/01/18 10:14:28;;;;;;;107.43;31.65;;;5.20;99.90;;;;;;5003838;28;20038;-81
2021/01/18 10:17:09;;;;;;;90.38;28.55;;;5.20;99.90;;;;;;5013986;28;20026;-82
2021/01/18 10:19:39;;;;;;;90.80;31.23;;;5.20;99.90;;;;;;5005200;28;20029;-82
2021/01/18 10:22:16;;;;;;;88.97;31.55;;;5.30;99.90;;;;;;5009350;28;20123;-81
2021/01/18 10:24:43;;;;;;;80.00;30.63;;;5.30;99.90;;;;;;4993878;28;20117;-81
2021/01/18 10:27:15;;;;;;;77.97;29.77;;;5.30;99.90;;;;;;4974360;28;20180;-81
2021/01/18 10:29:41;;;;;;;75.65;31.30;;;5.40;99.90;;;;;;4989425;28;20038;-82
2021/01/18 10:32:07;;;;;;;94.60;30.17;;;5.40;99.90;;;;;;4987899;28;20399;-81
2021/01/18 10:34:34;;;;;;;94.55;30.02;;;5.40;99.90;;;;;;4990475;28;20371;-82
2021/01/18 10:37:12;;;;;;;76.22;29.05;;;5.40;99.90;;;;;;4973360;28;21736;-82
2021/01/18 10:39:40;;;;;;;76.07;29.67;;;5.40;99.90;;;;;;4990320;28;20379;-83
2021/01/18 10:42:15;;;;;;;72.85;27.60;;;5.50;99.90;;;;;;4989931;28;20035;-81
2021/01/18 10:44:51;;;;;;;93.93;28.25;;;5.50;99.90;;;;;;5004890;28;20035;-80
2021/01/18 10:47:25;;;;;;;83.00;30.70;;;5.50;99.90;;;;;;4986259;28;20029;-80
2021/01/18 10:49:52;;;;;;;71.60;28.05;;;5.50;99.90;;;;;;4989050;28;20112;-81
2021/01/18 10:52:39;;;;;;;70.57;25.15;;;5.60;99.90;;;;;;4990293;28;20112;-81
2021/01/18 10:55:11;;;;;;;91.20;28.92;;;5.60;99.90;;;;;;5008117;28;20031;-81
2021/01/18 10:57:42;;;;;;;72.25;28.90;;;5.60;99.90;;;;;;4975573;28;20386;-81
2021/01/18 11:00:10;;;;;;;69.47;26.30;;;5.60;99.90;;;;;;5006396;28;20033;-82
2021/01/18 11:02:38;;;;;;;87.55;27.55;;;5.60;99.90;;;;;;5006619;28;20486;-81
2021/01/18 11:05:06;;;;;;;90.13;28.45;;;5.60;99.90;;;;;;4990599;28;20121;-81
2021/01/18 11:07:34;;;;;;;88.45;31.38;;;5.60;99.90;;;;;;4994256;28;20034;-81
2021/01/18 11:10:00;;;;;;;71.00;28.23;;;5.70;99.90;;;;;;4988695;28;20048;-82
2021/01/18 11:12:38;;;;;;;69.35;27.15;;;5.70;99.90;;;;;;4989105;28;20401;-82
2021/01/18 11:15:08;;;;;;;80.22;30.70;;;5.80;99.90;;;;;;4947760;28;20062;-83
2021/01/18 11:17:34;;;;;;;77.18;29.27;;;5.70;99.90;;;;;;4963068;28;20444;-82
2021/01/18 11:20:06;;;;;;;73.63;28.65;;;5.70;99.90;;;;;;4949380;28;20057;-81
2021/01/18 11:22:35;;;;;;;72.18;29.63;;;5.70;99.90;;;;;;4934560;28;20833;-82
2021/01/18 11:25:02;;;;;;;70.30;28.48;;;5.70;99.90;;;;;;4932480;28;20050;-82
2021/01/18 11:27:28;;;;;;;74.63;28.38;;;5.70;99.90;;;;;;4932778;29;20042;-81
2021/01/18 11:29:55;;;;;;;78.13;29.77;;;5.70;99.90;;;;;;4928956;29;20051;-82
2021/01/18 11:32:23;;;;;;;73.53;28.58;;;5.70;99.90;;;;;;4898852;29;20062;-82
2021/01/18 11:34:49;;;;;;;67.40;28.38;;;5.60;99.90;;;;;;4925814;29;20190;-82
2021/01/18 11:37:15;;;;;;;82.15;31.42;;;5.70;99.90;;;;;;4922909;29;20039;-82
2021/01/18 11:39:41;;;;;;;87.78;27.08;;;5.70;99.90;;;;;;4927222;29;20039;-81
2021/01/18 11:42:19;;;;;;;73.47;27.92;;;5.80;99.90;;;;;;4944525;28;20036;-83
2021/01/18 11:44:44;;;;;;;80.82;30.52;;;5.80;99.90;;;;;;4942214;28;20040;-82
2021/01/18 11:47:10;;;;;;;75.93;29.55;;;5.80;99.90;;;;;;4949802;28;20036;-82
2021/01/18 11:49:36;;;;;;;77.25;27.10;;;5.80;99.90;;;;;;4971748;28;20130;-81
2021/01/18 11:52:03;;;;;;;86.38;28.58;;;5.80;99.90;;;;;;4969500;28;20062;-82
2021/01/18 11:54:30;;;;;;;67.95;27.08;;;5.80;99.90;;;;;;4947615;28;20049;-81
2021/01/18 11:56:56;;;;;;;68.20;26.08;;;5.90;99.90;;;;;;4933446;28;20530;-82
2021/01/18 11:59:23;;;;;;;66.20;25.67;;;5.90;99.90;;;;;;4939520;28;20134;-81
2021/01/18 12:01:50;;;;;;;76.68;24.60;;;5.90;99.90;;;;;;4923835;28;20252;-82
2021/01/18 12:04:16;;;;;;;60.88;25.25;;;6.00;99.90;;;;;;4929835;28;20136;-82
2021/01/18 12:06:44;;;;;;;64.07;24.73;;;6.00;99.90;;;;;;4946474;28;20066;-82
2021/01/18 12:09:16;;;;;;;65.10;23.83;;;6.00;99.90;;;;;;4948286;28;20042;-81
2021/01/18 12:11:44;;;;;;;91.38;28.35;;;6.00;99.90;;;;;;4938878;28;20031;-81
2021/01/18 12:14:10;;;;;;;71.50;25.75;;;6.00;99.90;;;;;;4955331;28;20039;-81
2021/01/18 12:16:37;;;;;;;68.30;23.77;;;6.00;99.90;;;;;;4950719;28;20142;-81
2021/01/18 12:19:03;;;;;;;70.22;24.45;;;6.00;99.90;;;;;;4947171;28;20042;-80
2021/01/18 12:21:29;;;;;;;62.40;23.45;;;6.00;99.90;;;;;;4944776;28;20034;-82
2021/01/18 12:23:55;;;;;;;47.63;21.73;;;6.10;99.90;;;;;;4952392;28;20412;-82
2021/01/18 12:26:21;;;;;;;51.78;23.95;;;6.10;99.90;;;;;;4947058;28;20031;-81
2021/01/18 12:28:49;;;;;;;55.72;22.23;;;6.10;99.90;;;;;;4947869;28;20038;-81
2021/01/18 12:31:16;;;;;;;63.15;24.63;;;6.10;99.90;;;;;;4953544;28;20065;-83
2021/01/18 12:33:44;;;;;;;79.53;24.52;;;6.10;99.90;;;;;;4946945;28;20039;-82
2021/01/18 12:36:10;;;;;;;74.95;23.90;;;6.10;99.90;;;;;;4945810;28;20130;-82
2021/01/18 12:38:35;;;;;;;90.95;24.92;;;6.10;99.90;;;;;;4970790;28;20133;-82
2021/01/18 12:41:01;;;;;;;75.72;23.42;;;6.00;99.90;;;;;;4965488;28;20561;-81
2021/01/18 12:43:27;;;;;;;63.90;21.85;;;6.10;99.90;;;;;;4970779;28;20181;-83
2021/01/18 12:45:56;;;;;;;62.67;20.85;;;6.10;99.90;;;;;;4968553;28;20161;-83
2021/01/18 12:48:22;;;;;;;56.55;21.45;;;6.00;99.90;;;;;;4986060;28;20038;-82
2021/01/18 12:50:47;;;;;;;48.28;21.80;;;6.00;99.90;;;;;;4985988;28;20075;-82
2021/01/18 12:55:57;;;;;;;56.63;20.50;;;6.00;99.90;;;;;;4988842;28;20086;-82